sensor_id;sensor_type;location;lat;lon;timestamp;P1;durP1;ratioP1;P2;durP2;ratioP2
77870;SDS011;67067;46.850;7.578;2023-11-19T00:00:36;8.23;;;5.60;;
77870;SDS011;67067;46.850;7.578;2023-11-19T00:01:40;10.70;;;6.32;;
77870;SDS011;67067;46.850;7.578;2023-11-19T00:02:42;9.60;;;5.70;;
77870;SDS011;67067;46.850;7.578;2023-11-19T00:03:47;6.13;;;5.03;;
77870;SDS011;67067;46.850;7.578;2023-11-19T00:04:51;10.48;;;6.45;;
77870;SDS011;67067;46.850;7.578;2023-11-19T00:06:57;5.78;;;4.63;;
77870;SDS011;67067;46.850;7.578;2023-11-19T00:08:04;9.57;;;6.22;;
77870;SDS011;67067;46.850;7.578;2023-11-19T00:09:07;9.85;;;6.10;;
77870;SDS011;67067;46.850;7.578;2023-11-19T00:10:10;11.43;;;5.22;;
77870;SDS011;67067;46.850;7.578;2023-11-19T00:11:13;8.10;;;5.97;;
77870;SDS011;67067;46.850;7.578;2023-11-19T00:12:17;8.48;;;5.50;;
77870;SDS011;67067;46.850;7.578;2023-11-19T00:13:20;12.05;;;6.25;;
77870;SDS011;67067;46.850;7.578;2023-11-19T00:15:23;8.30;;;5.90;;
77870;SDS011;67067;46.850;7.578;2023-11-19T00:16:25;10.48;;;6.50;;
77870;SDS011;67067;46.850;7.578;2023-11-19T00:18:29;7.05;;;5.22;;
77870;SDS011;67067;46.850;7.578;2023-11-19T00:19:31;11.57;;;6.72;;
77870;SDS011;67067;46.850;7.578;2023-11-19T00:20:33;9.05;;;5.82;;
77870;SDS011;67067;46.850;7.578;2023-11-19T00:21:35;7.63;;;6.05;;
77870;SDS011;67067;46.850;7.578;2023-11-19T00:22:44;9.60;;;6.22;;
77870;SDS011;67067;46.850;7.578;2023-11-19T00:23:51;7.28;;;5.78;;
77870;SDS011;67067;46.850;7.578;2023-11-19T00:24:53;10.50;;;6.97;;
77870;SDS011;67067;46.850;7.578;2023-11-19T00:25:58;7.78;;;5.93;;
77870;SDS011;67067;46.850;7.578;2023-11-19T00:27:00;11.23;;;6.47;;
77870;SDS011;67067;46.850;7.578;2023-11-19T00:28:02;8.70;;;6.65;;
77870;SDS011;67067;46.850;7.578;2023-11-19T00:29:04;11.63;;;6.93;;
77870;SDS011;67067;46.850;7.578;2023-11-19T00:30:08;8.85;;;6.07;;
77870;SDS011;67067;46.850;7.578;2023-11-19T00:31:10;8.75;;;5.95;;
77870;SDS011;67067;46.850;7.578;2023-11-19T00:32:11;9.63;;;6.10;;
77870;SDS011;67067;46.850;7.578;2023-11-19T00:33:14;8.52;;;6.18;;
77870;SDS011;67067;46.850;7.578;2023-11-19T00:34:16;10.70;;;6.88;;
77870;SDS011;67067;46.850;7.578;2023-11-19T00:35:20;10.85;;;6.53;;
77870;SDS011;67067;46.850;7.578;2023-11-19T00:36:22;11.40;;;6.93;;
77870;SDS011;67067;46.850;7.578;2023-11-19T00:37:25;11.05;;;7.00;;
77870;SDS011;67067;46.850;7.578;2023-11-19T00:38:27;11.75;;;7.30;;
77870;SDS011;67067;46.850;7.578;2023-11-19T00:40:30;11.13;;;6.60;;
77870;SDS011;67067;46.850;7.578;2023-11-19T00:41:37;10.43;;;6.30;;
77870;SDS011;67067;46.850;7.578;2023-11-19T00:42:38;10.57;;;6.55;;
77870;SDS011;67067;46.850;7.578;2023-11-19T00:43:40;12.65;;;6.53;;
77870;SDS011;67067;46.850;7.578;2023-11-19T00:44:42;9.45;;;6.57;;
77870;SDS011;67067;46.850;7.578;2023-11-19T00:45:51;10.38;;;6.78;;
77870;SDS011;67067;46.850;7.578;2023-11-19T00:46:53;9.50;;;6.30;;
77870;SDS011;67067;46.850;7.578;2023-11-19T00:47:55;9.95;;;6.43;;
77870;SDS011;67067;46.850;7.578;2023-11-19T00:49:03;12.15;;;7.03;;
77870;SDS011;67067;46.850;7.578;2023-11-19T00:50:05;10.43;;;6.72;;
77870;SDS011;67067;46.850;7.578;2023-11-19T00:51:11;9.50;;;6.15;;
77870;SDS011;67067;46.850;7.578;2023-11-19T00:52:13;10.13;;;6.70;;
77870;SDS011;67067;46.850;7.578;2023-11-19T00:53:16;10.45;;;6.20;;
77870;SDS011;67067;46.850;7.578;2023-11-19T00:54:20;10.90;;;6.53;;
77870;SDS011;67067;46.850;7.578;2023-11-19T00:55:24;9.07;;;6.53;;
77870;SDS011;67067;46.850;7.578;2023-11-19T00:56:28;12.07;;;6.90;;
77870;SDS011;67067;46.850;7.578;2023-11-19T00:57:31;10.48;;;6.22;;
77870;SDS011;67067;46.850;7.578;2023-11-19T00:58:33;8.98;;;5.95;;
77870;SDS011;67067;46.850;7.578;2023-11-19T01:00:37;10.90;;;6.80;;
77870;SDS011;67067;46.850;7.578;2023-11-19T01:02:40;11.43;;;6.93;;
77870;SDS011;67067;46.850;7.578;2023-11-19T01:03:43;10.38;;;6.60;;
77870;SDS011;67067;46.850;7.578;2023-11-19T01:04:44;11.57;;;6.88;;
77870;SDS011;67067;46.850;7.578;2023-11-19T01:05:46;12.98;;;7.15;;
77870;SDS011;67067;46.850;7.578;2023-11-19T01:06:51;9.20;;;6.30;;
77870;SDS011;67067;46.850;7.578;2023-11-19T01:07:56;8.40;;;6.05;;
77870;SDS011;67067;46.850;7.578;2023-11-19T01:08:58;11.20;;;6.63;;
77870;SDS011;67067;46.850;7.578;2023-11-19T01:10:02;11.15;;;6.90;;
77870;SDS011;67067;46.850;7.578;2023-11-19T01:11:07;7.68;;;6.05;;
77870;SDS011;67067;46.850;7.578;2023-11-19T01:12:09;11.55;;;7.55;;
77870;SDS011;67067;46.850;7.578;2023-11-19T01:13:12;10.75;;;7.25;;
77870;SDS011;67067;46.850;7.578;2023-11-19T01:14:18;10.18;;;6.13;;
77870;SDS011;67067;46.850;7.578;2023-11-19T01:15:22;11.18;;;6.68;;
77870;SDS011;67067;46.850;7.578;2023-11-19T01:16:25;11.60;;;6.70;;
77870;SDS011;67067;46.850;7.578;2023-11-19T01:17:27;11.18;;;7.38;;
77870;SDS011;67067;46.850;7.578;2023-11-19T01:18:31;13.25;;;8.30;;
77870;SDS011;67067;46.850;7.578;2023-11-19T01:19:35;10.55;;;7.65;;
77870;SDS011;67067;46.850;7.578;2023-11-19T01:21:38;10.38;;;6.90;;
77870;SDS011;67067;46.850;7.578;2023-11-19T01:22:43;13.15;;;6.85;;
77870;SDS011;67067;46.850;7.578;2023-11-19T01:24:49;12.77;;;7.20;;
77870;SDS011;67067;46.850;7.578;2023-11-19T01:25:51;12.65;;;7.88;;
77870;SDS011;67067;46.850;7.578;2023-11-19T01:27:55;12.83;;;7.63;;
77870;SDS011;67067;46.850;7.578;2023-11-19T01:28:59;12.45;;;7.82;;
77870;SDS011;67067;46.850;7.578;2023-11-19T01:30:02;17.08;;;8.75;;
77870;SDS011;67067;46.850;7.578;2023-11-19T01:31:11;11.35;;;6.65;;
77870;SDS011;67067;46.850;7.578;2023-11-19T01:32:14;11.63;;;7.47;;
77870;SDS011;67067;46.850;7.578;2023-11-19T01:34:17;12.40;;;7.63;;
77870;SDS011;67067;46.850;7.578;2023-11-19T01:35:22;10.05;;;6.88;;
77870;SDS011;67067;46.850;7.578;2023-11-19T01:36:28;13.85;;;7.93;;
77870;SDS011;67067;46.850;7.578;2023-11-19T01:37:32;9.98;;;6.80;;
77870;SDS011;67067;46.850;7.578;2023-11-19T01:38:37;8.40;;;6.43;;
77870;SDS011;67067;46.850;7.578;2023-11-19T01:39:43;9.80;;;6.72;;
77870;SDS011;67067;46.850;7.578;2023-11-19T01:40:58;17.15;;;7.80;;
77870;SDS011;67067;46.850;7.578;2023-11-19T01:42:00;15.13;;;8.10;;
77870;SDS011;67067;46.850;7.578;2023-11-19T01:44:05;12.90;;;8.05;;
77870;SDS011;67067;46.850;7.578;2023-11-19T01:45:10;11.25;;;6.55;;
77870;SDS011;67067;46.850;7.578;2023-11-19T01:46:23;11.95;;;7.68;;
77870;SDS011;67067;46.850;7.578;2023-11-19T01:47:28;10.38;;;7.13;;
77870;SDS011;67067;46.850;7.578;2023-11-19T01:48:32;16.27;;;8.95;;
77870;SDS011;67067;46.850;7.578;2023-11-19T01:49:37;11.98;;;6.85;;
77870;SDS011;67067;46.850;7.578;2023-11-19T01:51:41;14.68;;;8.05;;
77870;SDS011;67067;46.850;7.578;2023-11-19T01:52:46;9.50;;;6.88;;
77870;SDS011;67067;46.850;7.578;2023-11-19T01:53:48;13.43;;;8.00;;
77870;SDS011;67067;46.850;7.578;2023-11-19T01:54:51;12.02;;;7.18;;
77870;SDS011;67067;46.850;7.578;2023-11-19T01:55:55;11.02;;;6.78;;
77870;SDS011;67067;46.850;7.578;2023-11-19T01:56:58;12.48;;;8.20;;
77870;SDS011;67067;46.850;7.578;2023-11-19T01:58:00;13.15;;;7.97;;
77870;SDS011;67067;46.850;7.578;2023-11-19T01:59:03;10.95;;;7.13;;
77870;SDS011;67067;46.850;7.578;2023-11-19T02:12:45;11.07;;;7.90;;
77870;SDS011;67067;46.850;7.578;2023-11-19T02:13:47;11.48;;;8.02;;
77870;SDS011;67067;46.850;7.578;2023-11-19T02:14:52;11.45;;;7.65;;
77870;SDS011;67067;46.850;7.578;2023-11-19T02:16:57;9.13;;;6.68;;
77870;SDS011;67067;46.850;7.578;2023-11-19T02:19:19;11.00;;;7.22;;
77870;SDS011;67067;46.850;7.578;2023-11-19T02:20:21;8.52;;;6.10;;
77870;SDS011;67067;46.850;7.578;2023-11-19T02:21:23;14.13;;;7.60;;
77870;SDS011;67067;46.850;7.578;2023-11-19T02:22:26;13.40;;;7.85;;
77870;SDS011;67067;46.850;7.578;2023-11-19T02:23:30;11.93;;;7.85;;
77870;SDS011;67067;46.850;7.578;2023-11-19T02:24:32;12.75;;;8.00;;
77870;SDS011;67067;46.850;7.578;2023-11-19T02:25:35;13.98;;;8.27;;
77870;SDS011;67067;46.850;7.578;2023-11-19T02:28:02;10.40;;;7.20;;
77870;SDS011;67067;46.850;7.578;2023-11-19T02:29:05;11.20;;;7.20;;
77870;SDS011;67067;46.850;7.578;2023-11-19T02:30:09;12.85;;;8.30;;
77870;SDS011;67067;46.850;7.578;2023-11-19T02:31:12;10.23;;;7.25;;
77870;SDS011;67067;46.850;7.578;2023-11-19T02:32:15;8.95;;;6.95;;
77870;SDS011;67067;46.850;7.578;2023-11-19T02:33:17;14.15;;;8.25;;
77870;SDS011;67067;46.850;7.578;2023-11-19T02:34:19;13.57;;;8.40;;
77870;SDS011;67067;46.850;7.578;2023-11-19T02:35:22;15.15;;;9.15;;
77870;SDS011;67067;46.850;7.578;2023-11-19T02:36:26;11.55;;;7.63;;
77870;SDS011;67067;46.850;7.578;2023-11-19T02:37:28;11.77;;;7.40;;
77870;SDS011;67067;46.850;7.578;2023-11-19T02:40:34;9.40;;;6.95;;
77870;SDS011;67067;46.850;7.578;2023-11-19T02:41:36;10.63;;;7.60;;
77870;SDS011;67067;46.850;7.578;2023-11-19T02:42:37;11.77;;;7.60;;
77870;SDS011;67067;46.850;7.578;2023-11-19T02:43:40;15.40;;;8.95;;
77870;SDS011;67067;46.850;7.578;2023-11-19T02:44:45;16.63;;;8.85;;
77870;SDS011;67067;46.850;7.578;2023-11-19T02:45:47;10.75;;;7.82;;
77870;SDS011;67067;46.850;7.578;2023-11-19T02:46:49;10.05;;;7.05;;
77870;SDS011;67067;46.850;7.578;2023-11-19T02:47:52;15.50;;;8.65;;
77870;SDS011;67067;46.850;7.578;2023-11-19T02:48:58;11.57;;;8.00;;
77870;SDS011;67067;46.850;7.578;2023-11-19T02:50:01;12.43;;;8.40;;
77870;SDS011;67067;46.850;7.578;2023-11-19T02:51:03;15.73;;;9.20;;
77870;SDS011;67067;46.850;7.578;2023-11-19T02:52:06;13.57;;;8.30;;
77870;SDS011;67067;46.850;7.578;2023-11-19T02:53:08;16.55;;;9.63;;
77870;SDS011;67067;46.850;7.578;2023-11-19T02:55:14;11.98;;;6.97;;
77870;SDS011;67067;46.850;7.578;2023-11-19T02:56:16;10.32;;;7.15;;
77870;SDS011;67067;46.850;7.578;2023-11-19T02:57:30;12.00;;;7.95;;
77870;SDS011;67067;46.850;7.578;2023-11-19T02:58:32;10.70;;;7.30;;
77870;SDS011;67067;46.850;7.578;2023-11-19T02:59:39;12.90;;;7.38;;
77870;SDS011;67067;46.850;7.578;2023-11-19T03:00:43;11.20;;;7.72;;
77870;SDS011;67067;46.850;7.578;2023-11-19T03:01:54;12.13;;;7.65;;
77870;SDS011;67067;46.850;7.578;2023-11-19T03:02:56;12.60;;;8.35;;
77870;SDS011;67067;46.850;7.578;2023-11-19T03:04:06;9.40;;;6.85;;
77870;SDS011;67067;46.850;7.578;2023-11-19T03:05:12;10.52;;;7.47;;
77870;SDS011;67067;46.850;7.578;2023-11-19T03:06:16;11.25;;;7.20;;
77870;SDS011;67067;46.850;7.578;2023-11-19T03:08:19;12.80;;;7.88;;
77870;SDS011;67067;46.850;7.578;2023-11-19T03:09:24;11.25;;;7.78;;
77870;SDS011;67067;46.850;7.578;2023-11-19T03:11:31;11.95;;;7.22;;
77870;SDS011;67067;46.850;7.578;2023-11-19T03:12:35;11.82;;;7.28;;
77870;SDS011;67067;46.850;7.578;2023-11-19T03:14:38;10.18;;;6.60;;
77870;SDS011;67067;46.850;7.578;2023-11-19T03:15:42;15.60;;;8.65;;
77870;SDS011;67067;46.850;7.578;2023-11-19T03:16:47;10.90;;;7.05;;
77870;SDS011;67067;46.850;7.578;2023-11-19T03:17:49;12.40;;;7.57;;
77870;SDS011;67067;46.850;7.578;2023-11-19T03:18:51;17.70;;;9.40;;
77870;SDS011;67067;46.850;7.578;2023-11-19T03:19:53;11.60;;;7.35;;
77870;SDS011;67067;46.850;7.578;2023-11-19T03:22:01;11.05;;;7.30;;
77870;SDS011;67067;46.850;7.578;2023-11-19T03:23:03;9.15;;;6.30;;
77870;SDS011;67067;46.850;7.578;2023-11-19T03:24:07;9.25;;;6.70;;
77870;SDS011;67067;46.850;7.578;2023-11-19T03:25:09;9.95;;;6.90;;
77870;SDS011;67067;46.850;7.578;2023-11-19T03:26:12;13.10;;;7.75;;
77870;SDS011;67067;46.850;7.578;2023-11-19T03:27:14;11.68;;;6.95;;
77870;SDS011;67067;46.850;7.578;2023-11-19T03:28:19;12.40;;;7.40;;
77870;SDS011;67067;46.850;7.578;2023-11-19T03:29:25;9.88;;;6.80;;
77870;SDS011;67067;46.850;7.578;2023-11-19T03:30:27;10.63;;;6.72;;
77870;SDS011;67067;46.850;7.578;2023-11-19T03:31:32;9.93;;;6.40;;
77870;SDS011;67067;46.850;7.578;2023-11-19T03:34:39;9.02;;;6.35;;
77870;SDS011;67067;46.850;7.578;2023-11-19T03:35:46;8.15;;;6.38;;
77870;SDS011;67067;46.850;7.578;2023-11-19T03:36:50;10.35;;;6.78;;
77870;SDS011;67067;46.850;7.578;2023-11-19T03:37:52;10.18;;;6.55;;
77870;SDS011;67067;46.850;7.578;2023-11-19T03:39:58;10.60;;;6.20;;
77870;SDS011;67067;46.850;7.578;2023-11-19T03:41:13;10.38;;;5.80;;
77870;SDS011;67067;46.850;7.578;2023-11-19T03:42:16;8.90;;;6.22;;
77870;SDS011;67067;46.850;7.578;2023-11-19T03:43:18;12.85;;;7.50;;
77870;SDS011;67067;46.850;7.578;2023-11-19T03:44:25;9.13;;;6.20;;
77870;SDS011;67067;46.850;7.578;2023-11-19T03:45:28;10.38;;;6.45;;
77870;SDS011;67067;46.850;7.578;2023-11-19T03:46:32;11.13;;;6.78;;
77870;SDS011;67067;46.850;7.578;2023-11-19T03:47:37;9.40;;;6.65;;
77870;SDS011;67067;46.850;7.578;2023-11-19T03:48:42;8.80;;;6.13;;
77870;SDS011;67067;46.850;7.578;2023-11-19T03:49:51;11.50;;;6.70;;
77870;SDS011;67067;46.850;7.578;2023-11-19T03:50:58;7.60;;;6.20;;
77870;SDS011;67067;46.850;7.578;2023-11-19T03:51:59;9.88;;;6.47;;
77870;SDS011;67067;46.850;7.578;2023-11-19T03:53:01;11.43;;;7.45;;
77870;SDS011;67067;46.850;7.578;2023-11-19T03:54:04;8.57;;;6.28;;
77870;SDS011;67067;46.850;7.578;2023-11-19T03:55:08;8.95;;;6.32;;
77870;SDS011;67067;46.850;7.578;2023-11-19T03:56:10;9.10;;;6.68;;
77870;SDS011;67067;46.850;7.578;2023-11-19T03:57:13;11.25;;;7.20;;
77870;SDS011;67067;46.850;7.578;2023-11-19T03:58:14;9.65;;;6.70;;
77870;SDS011;67067;46.850;7.578;2023-11-19T03:59:19;7.25;;;5.90;;
77870;SDS011;67067;46.850;7.578;2023-11-19T04:00:22;8.15;;;6.20;;
77870;SDS011;67067;46.850;7.578;2023-11-19T04:02:25;11.90;;;5.95;;
77870;SDS011;67067;46.850;7.578;2023-11-19T04:03:30;9.55;;;6.40;;
77870;SDS011;67067;46.850;7.578;2023-11-19T04:04:33;8.48;;;6.60;;
77870;SDS011;67067;46.850;7.578;2023-11-19T04:05:35;9.10;;;6.43;;
77870;SDS011;67067;46.850;7.578;2023-11-19T04:07:38;7.90;;;5.25;;
77870;SDS011;67067;46.850;7.578;2023-11-19T04:09:42;8.10;;;5.40;;
77870;SDS011;67067;46.850;7.578;2023-11-19T04:10:44;5.68;;;5.05;;
77870;SDS011;67067;46.850;7.578;2023-11-19T04:11:46;8.05;;;5.72;;
77870;SDS011;67067;46.850;7.578;2023-11-19T04:12:48;8.57;;;5.50;;
77870;SDS011;67067;46.850;7.578;2023-11-19T04:13:52;6.82;;;5.10;;
77870;SDS011;67067;46.850;7.578;2023-11-19T04:14:54;8.65;;;5.13;;
77870;SDS011;67067;46.850;7.578;2023-11-19T04:16:00;6.75;;;4.70;;
77870;SDS011;67067;46.850;7.578;2023-11-19T04:17:05;4.47;;;4.07;;
77870;SDS011;67067;46.850;7.578;2023-11-19T04:18:07;8.13;;;4.72;;
77870;SDS011;67067;46.850;7.578;2023-11-19T04:19:11;6.47;;;5.00;;
77870;SDS011;67067;46.850;7.578;2023-11-19T04:20:13;7.18;;;5.00;;
77870;SDS011;67067;46.850;7.578;2023-11-19T04:21:16;5.10;;;4.43;;
77870;SDS011;67067;46.850;7.578;2023-11-19T04:22:23;6.63;;;4.53;;
77870;SDS011;67067;46.850;7.578;2023-11-19T04:23:25;7.40;;;4.85;;
77870;SDS011;67067;46.850;7.578;2023-11-19T04:25:29;7.20;;;4.50;;
77870;SDS011;67067;46.850;7.578;2023-11-19T04:26:34;6.68;;;5.32;;
77870;SDS011;67067;46.850;7.578;2023-11-19T04:28:37;5.97;;;4.57;;
77870;SDS011;67067;46.850;7.578;2023-11-19T04:29:39;6.45;;;4.35;;
77870;SDS011;67067;46.850;7.578;2023-11-19T04:31:43;6.75;;;4.53;;
77870;SDS011;67067;46.850;7.578;2023-11-19T04:32:49;5.78;;;4.45;;
77870;SDS011;67067;46.850;7.578;2023-11-19T04:33:50;6.75;;;4.50;;
77870;SDS011;67067;46.850;7.578;2023-11-19T04:34:53;5.40;;;4.43;;
77870;SDS011;67067;46.850;7.578;2023-11-19T04:36:57;7.72;;;4.85;;
77870;SDS011;67067;46.850;7.578;2023-11-19T04:38:13;5.93;;;4.60;;
77870;SDS011;67067;46.850;7.578;2023-11-19T04:39:15;6.28;;;4.72;;
77870;SDS011;67067;46.850;7.578;2023-11-19T04:40:21;5.88;;;5.03;;
77870;SDS011;67067;46.850;7.578;2023-11-19T04:41:24;7.05;;;5.00;;
77870;SDS011;67067;46.850;7.578;2023-11-19T04:42:26;6.15;;;5.05;;
77870;SDS011;67067;46.850;7.578;2023-11-19T04:44:29;7.35;;;5.22;;
77870;SDS011;67067;46.850;7.578;2023-11-19T04:45:31;7.47;;;5.40;;
77870;SDS011;67067;46.850;7.578;2023-11-19T04:46:34;10.60;;;6.00;;
77870;SDS011;67067;46.850;7.578;2023-11-19T04:47:36;11.15;;;6.53;;
77870;SDS011;67067;46.850;7.578;2023-11-19T04:48:38;10.27;;;6.40;;
77870;SDS011;67067;46.850;7.578;2023-11-19T04:49:43;7.78;;;5.97;;
77870;SDS011;67067;46.850;7.578;2023-11-19T04:50:48;10.63;;;7.07;;
77870;SDS011;67067;46.850;7.578;2023-11-19T04:52:52;8.93;;;5.82;;
77870;SDS011;67067;46.850;7.578;2023-11-19T04:53:54;9.13;;;6.70;;
77870;SDS011;67067;46.850;7.578;2023-11-19T04:55:57;7.45;;;5.63;;
77870;SDS011;67067;46.850;7.578;2023-11-19T04:56:59;9.55;;;6.55;;
77870;SDS011;67067;46.850;7.578;2023-11-19T04:58:01;9.38;;;6.18;;
77870;SDS011;67067;46.850;7.578;2023-11-19T04:59:06;13.43;;;7.07;;
77870;SDS011;67067;46.850;7.578;2023-11-19T05:02:11;10.45;;;6.72;;
77870;SDS011;67067;46.850;7.578;2023-11-19T05:03:16;9.25;;;6.57;;
77870;SDS011;67067;46.850;7.578;2023-11-19T05:04:19;8.43;;;5.72;;
77870;SDS011;67067;46.850;7.578;2023-11-19T05:05:21;8.50;;;5.90;;
77870;SDS011;67067;46.850;7.578;2023-11-19T05:06:23;10.65;;;7.00;;
77870;SDS011;67067;46.850;7.578;2023-11-19T05:07:27;11.82;;;7.40;;
77870;SDS011;67067;46.850;7.578;2023-11-19T05:08:29;9.77;;;6.72;;
77870;SDS011;67067;46.850;7.578;2023-11-19T05:09:31;14.23;;;7.97;;
77870;SDS011;67067;46.850;7.578;2023-11-19T05:11:35;12.77;;;7.50;;
77870;SDS011;67067;46.850;7.578;2023-11-19T05:12:36;10.07;;;6.80;;
77870;SDS011;67067;46.850;7.578;2023-11-19T05:14:40;14.20;;;7.70;;
77870;SDS011;67067;46.850;7.578;2023-11-19T05:15:50;10.80;;;6.85;;
77870;SDS011;67067;46.850;7.578;2023-11-19T05:17:56;11.15;;;7.10;;
77870;SDS011;67067;46.850;7.578;2023-11-19T05:18:58;13.75;;;7.60;;
77870;SDS011;67067;46.850;7.578;2023-11-19T05:20:00;9.98;;;7.10;;
77870;SDS011;67067;46.850;7.578;2023-11-19T05:21:05;10.38;;;7.03;;
77870;SDS011;67067;46.850;7.578;2023-11-19T05:22:08;12.80;;;6.95;;
77870;SDS011;67067;46.850;7.578;2023-11-19T05:24:22;9.95;;;6.45;;
77870;SDS011;67067;46.850;7.578;2023-11-19T05:25:24;7.25;;;5.50;;
77870;SDS011;67067;46.850;7.578;2023-11-19T05:26:28;7.75;;;5.95;;
77870;SDS011;67067;46.850;7.578;2023-11-19T05:27:32;7.85;;;5.75;;
77870;SDS011;67067;46.850;7.578;2023-11-19T05:28:34;9.20;;;6.32;;
77870;SDS011;67067;46.850;7.578;2023-11-19T05:29:36;10.02;;;6.55;;
77870;SDS011;67067;46.850;7.578;2023-11-19T05:30:40;12.38;;;8.13;;
77870;SDS011;67067;46.850;7.578;2023-11-19T05:31:42;13.73;;;7.70;;
77870;SDS011;67067;46.850;7.578;2023-11-19T05:32:45;9.20;;;6.45;;
77870;SDS011;67067;46.850;7.578;2023-11-19T05:34:49;10.20;;;6.93;;
77870;SDS011;67067;46.850;7.578;2023-11-19T05:35:55;11.40;;;6.78;;
77870;SDS011;67067;46.850;7.578;2023-11-19T05:36:58;8.10;;;6.00;;
77870;SDS011;67067;46.850;7.578;2023-11-19T05:38:00;7.90;;;5.97;;
77870;SDS011;67067;46.850;7.578;2023-11-19T05:39:06;9.80;;;7.00;;
77870;SDS011;67067;46.850;7.578;2023-11-19T05:40:10;9.25;;;5.97;;
77870;SDS011;67067;46.850;7.578;2023-11-19T05:41:17;12.30;;;7.53;;
77870;SDS011;67067;46.850;7.578;2023-11-19T05:43:20;11.02;;;6.53;;
77870;SDS011;67067;46.850;7.578;2023-11-19T05:44:22;10.68;;;6.95;;
77870;SDS011;67067;46.850;7.578;2023-11-19T05:46:26;8.50;;;5.80;;
77870;SDS011;67067;46.850;7.578;2023-11-19T05:47:30;7.72;;;6.25;;
77870;SDS011;67067;46.850;7.578;2023-11-19T05:48:32;16.30;;;10.02;;
77870;SDS011;67067;46.850;7.578;2023-11-19T05:49:34;13.38;;;7.38;;
77870;SDS011;67067;46.850;7.578;2023-11-19T05:50:36;17.55;;;8.60;;
77870;SDS011;67067;46.850;7.578;2023-11-19T05:51:41;12.40;;;7.60;;
77870;SDS011;67067;46.850;7.578;2023-11-19T05:53:47;7.78;;;5.70;;
77870;SDS011;67067;46.850;7.578;2023-11-19T05:54:51;8.90;;;6.38;;
77870;SDS011;67067;46.850;7.578;2023-11-19T05:55:53;8.30;;;6.07;;
77870;SDS011;67067;46.850;7.578;2023-11-19T05:56:57;9.55;;;6.60;;
77870;SDS011;67067;46.850;7.578;2023-11-19T05:59:01;8.52;;;5.80;;
77870;SDS011;67067;46.850;7.578;2023-11-19T06:00:05;9.40;;;6.07;;
77870;SDS011;67067;46.850;7.578;2023-11-19T06:01:11;10.18;;;6.28;;
77870;SDS011;67067;46.850;7.578;2023-11-19T06:02:13;13.13;;;7.30;;
77870;SDS011;67067;46.850;7.578;2023-11-19T06:04:17;8.93;;;6.38;;
77870;SDS011;67067;46.850;7.578;2023-11-19T06:05:21;12.38;;;7.55;;
77870;SDS011;67067;46.850;7.578;2023-11-19T06:07:25;10.55;;;5.63;;
77870;SDS011;67067;46.850;7.578;2023-11-19T06:09:28;6.47;;;4.95;;
77870;SDS011;67067;46.850;7.578;2023-11-19T06:10:33;5.78;;;4.90;;
77870;SDS011;67067;46.850;7.578;2023-11-19T06:11:37;8.02;;;5.68;;
77870;SDS011;67067;46.850;7.578;2023-11-19T06:12:38;8.13;;;5.78;;
77870;SDS011;67067;46.850;7.578;2023-11-19T06:13:45;7.63;;;5.05;;
77870;SDS011;67067;46.850;7.578;2023-11-19T06:14:48;10.57;;;6.63;;
77870;SDS011;67067;46.850;7.578;2023-11-19T06:15:50;11.93;;;6.32;;
77870;SDS011;67067;46.850;7.578;2023-11-19T06:16:52;10.93;;;6.75;;
77870;SDS011;67067;46.850;7.578;2023-11-19T06:17:54;9.18;;;5.95;;
77870;SDS011;67067;46.850;7.578;2023-11-19T06:18:56;6.35;;;5.40;;
77870;SDS011;67067;46.850;7.578;2023-11-19T06:21:00;10.10;;;6.65;;
77870;SDS011;67067;46.850;7.578;2023-11-19T06:22:02;11.40;;;6.43;;
77870;SDS011;67067;46.850;7.578;2023-11-19T06:23:04;10.48;;;6.47;;
77870;SDS011;67067;46.850;7.578;2023-11-19T06:24:08;13.88;;;7.28;;
77870;SDS011;67067;46.850;7.578;2023-11-19T06:25:10;9.52;;;5.95;;
77870;SDS011;67067;46.850;7.578;2023-11-19T06:26:12;8.85;;;6.32;;
77870;SDS011;67067;46.850;7.578;2023-11-19T06:27:18;11.88;;;7.10;;
77870;SDS011;67067;46.850;7.578;2023-11-19T06:28:19;9.25;;;6.40;;
77870;SDS011;67067;46.850;7.578;2023-11-19T06:30:23;6.37;;;5.23;;
77870;SDS011;67067;46.850;7.578;2023-11-19T06:31:25;12.70;;;7.03;;
77870;SDS011;67067;46.850;7.578;2023-11-19T06:33:31;9.57;;;5.82;;
77870;SDS011;67067;46.850;7.578;2023-11-19T06:34:32;8.95;;;5.68;;
77870;SDS011;67067;46.850;7.578;2023-11-19T06:36:38;6.22;;;5.15;;
77870;SDS011;67067;46.850;7.578;2023-11-19T06:37:41;8.88;;;6.05;;
77870;SDS011;67067;46.850;7.578;2023-11-19T06:38:43;10.90;;;7.38;;
77870;SDS011;67067;46.850;7.578;2023-11-19T06:40:46;15.38;;;7.82;;
77870;SDS011;67067;46.850;7.578;2023-11-19T06:41:51;11.43;;;7.43;;
77870;SDS011;67067;46.850;7.578;2023-11-19T06:42:53;13.10;;;7.18;;
77870;SDS011;67067;46.850;7.578;2023-11-19T06:43:57;8.60;;;6.40;;
77870;SDS011;67067;46.850;7.578;2023-11-19T06:46:01;6.63;;;4.93;;
77870;SDS011;67067;46.850;7.578;2023-11-19T06:47:03;7.50;;;5.55;;
77870;SDS011;67067;46.850;7.578;2023-11-19T06:48:05;6.47;;;5.03;;
77870;SDS011;67067;46.850;7.578;2023-11-19T06:49:07;8.50;;;5.72;;
77870;SDS011;67067;46.850;7.578;2023-11-19T06:50:09;7.13;;;5.45;;
77870;SDS011;67067;46.850;7.578;2023-11-19T06:51:16;8.88;;;6.00;;
77870;SDS011;67067;46.850;7.578;2023-11-19T06:52:18;9.00;;;5.93;;
77870;SDS011;67067;46.850;7.578;2023-11-19T06:53:19;8.93;;;6.03;;
77870;SDS011;67067;46.850;7.578;2023-11-19T06:55:23;7.75;;;5.57;;
77870;SDS011;67067;46.850;7.578;2023-11-19T06:56:25;8.27;;;5.80;;
77870;SDS011;67067;46.850;7.578;2023-11-19T06:58:29;10.45;;;5.90;;
77870;SDS011;67067;46.850;7.578;2023-11-19T06:59:31;10.80;;;5.85;;
77870;SDS011;67067;46.850;7.578;2023-11-19T07:01:37;7.50;;;5.60;;
77870;SDS011;67067;46.850;7.578;2023-11-19T07:02:39;8.50;;;5.90;;
77870;SDS011;67067;46.850;7.578;2023-11-19T07:03:41;8.88;;;5.95;;
77870;SDS011;67067;46.850;7.578;2023-11-19T07:04:44;10.98;;;6.28;;
77870;SDS011;67067;46.850;7.578;2023-11-19T07:05:50;5.45;;;4.72;;
77870;SDS011;67067;46.850;7.578;2023-11-19T07:06:53;9.23;;;6.00;;
77870;SDS011;67067;46.850;7.578;2023-11-19T07:08:57;10.98;;;6.32;;
77870;SDS011;67067;46.850;7.578;2023-11-19T07:09:59;10.82;;;6.30;;
77870;SDS011;67067;46.850;7.578;2023-11-19T07:11:01;9.52;;;6.38;;
77870;SDS011;67067;46.850;7.578;2023-11-19T07:13:06;7.43;;;5.40;;
77870;SDS011;67067;46.850;7.578;2023-11-19T07:14:08;11.77;;;6.35;;
77870;SDS011;67067;46.850;7.578;2023-11-19T07:15:10;10.68;;;6.40;;
77870;SDS011;67067;46.850;7.578;2023-11-19T07:17:15;12.18;;;7.15;;
77870;SDS011;67067;46.850;7.578;2023-11-19T07:18:19;18.08;;;8.23;;
77870;SDS011;67067;46.850;7.578;2023-11-19T07:19:23;13.18;;;7.25;;
77870;SDS011;67067;46.850;7.578;2023-11-19T07:21:30;11.60;;;6.82;;
77870;SDS011;67067;46.850;7.578;2023-11-19T07:22:34;11.52;;;6.65;;
77870;SDS011;67067;46.850;7.578;2023-11-19T07:23:36;14.52;;;7.60;;
77870;SDS011;67067;46.850;7.578;2023-11-19T07:24:41;10.55;;;6.60;;
77870;SDS011;67067;46.850;7.578;2023-11-19T07:25:43;11.55;;;6.65;;
77870;SDS011;67067;46.850;7.578;2023-11-19T07:26:48;13.63;;;6.80;;
77870;SDS011;67067;46.850;7.578;2023-11-19T07:27:51;9.27;;;6.40;;
77870;SDS011;67067;46.850;7.578;2023-11-19T07:28:53;15.40;;;7.22;;
77870;SDS011;67067;46.850;7.578;2023-11-19T07:29:59;10.35;;;7.25;;
77870;SDS011;67067;46.850;7.578;2023-11-19T07:31:01;9.35;;;6.20;;
77870;SDS011;67067;46.850;7.578;2023-11-19T07:32:03;13.48;;;7.75;;
77870;SDS011;67067;46.850;7.578;2023-11-19T07:33:06;12.52;;;6.75;;
77870;SDS011;67067;46.850;7.578;2023-11-19T07:34:10;10.63;;;6.50;;
77870;SDS011;67067;46.850;7.578;2023-11-19T07:35:15;14.43;;;8.15;;
77870;SDS011;67067;46.850;7.578;2023-11-19T07:36:20;10.20;;;6.40;;